createdAt,value
2023-02-05T00:01:44.714Z,12.40
2023-02-05T00:04:09.493Z,13.30
2023-02-05T00:06:33.300Z,11.17
2023-02-05T00:08:58.311Z,13.53
2023-02-05T00:11:23.460Z,16.43
2023-02-05T00:13:47.231Z,12.93
2023-02-05T00:16:12.957Z,14.13
2023-02-05T00:18:37.453Z,12.10
2023-02-05T00:21:01.127Z,14.80
2023-02-05T00:23:24.913Z,19.83
2023-02-05T00:25:48.574Z,16.90
2023-02-05T00:28:13.896Z,16.90
2023-02-05T00:30:37.647Z,18.13
2023-02-05T00:33:01.448Z,15.60
2023-02-05T00:35:25.211Z,16.40
2023-02-05T00:37:48.877Z,16.67
2023-02-05T00:40:14.094Z,18.87
2023-02-05T00:42:38.608Z,18.10
2023-02-05T00:45:03.891Z,16.27
2023-02-05T00:47:27.680Z,17.33
2023-02-05T00:49:51.305Z,22.83
2023-02-05T00:52:15.425Z,14.03
2023-02-05T00:54:39.142Z,18.27
2023-02-05T00:57:03.793Z,18.23
2023-02-05T00:59:27.685Z,16.37
2023-02-05T01:01:52.846Z,14.93
2023-02-05T01:04:17.444Z,16.40
2023-02-05T01:06:41.207Z,16.93
2023-02-05T01:09:05.434Z,19.63
2023-02-05T01:11:29.628Z,18.03
2023-02-05T01:13:53.314Z,17.77
2023-02-05T01:16:17.296Z,20.40
2023-02-05T01:18:42.686Z,18.53
2023-02-05T01:21:06.867Z,20.90
2023-02-05T01:23:30.589Z,17.67
2023-02-05T01:25:54.350Z,23.53
2023-02-05T01:28:18.084Z,24.77
2023-02-05T01:30:43.105Z,20.57
2023-02-05T01:33:06.942Z,28.37
2023-02-05T01:35:32.514Z,26.97
2023-02-05T01:37:56.334Z,24.93
2023-02-05T01:40:20.772Z,32.00
2023-02-05T01:42:44.858Z,25.07
2023-02-05T01:46:01.987Z,25.37
2023-02-05T01:48:31.442Z,21.30
2023-02-05T01:51:01.264Z,23.80
2023-02-05T01:53:29.707Z,23.73
2023-02-05T01:55:57.657Z,25.80
2023-02-05T01:58:21.535Z,25.40
2023-02-05T02:00:45.500Z,24.77
2023-02-05T02:03:09.262Z,25.20
2023-02-05T02:05:33.380Z,22.40
2023-02-05T02:07:59.074Z,19.80
2023-02-05T02:10:23.062Z,17.77
2023-02-05T02:12:49.143Z,20.20
2023-02-05T02:15:17.897Z,22.53
2023-02-05T02:17:45.021Z,16.53
2023-02-05T02:20:12.851Z,19.13
2023-02-05T02:23:03.713Z,13.83
2023-02-05T02:25:56.177Z,16.97
2023-02-05T02:28:27.985Z,16.50
2023-02-05T02:31:01.110Z,16.50
2023-02-05T02:33:36.624Z,15.77
2023-02-05T02:36:04.655Z,14.07
2023-02-05T02:38:33.020Z,14.50
2023-02-05T02:41:05.701Z,10.40
2023-02-05T02:43:36.722Z,12.30
2023-02-05T02:46:04.588Z,11.60
2023-02-05T02:48:31.987Z,10.30
2023-02-05T02:50:58.362Z,11.37
2023-02-05T02:53:25.963Z,11.73
2023-02-05T02:55:52.180Z,10.00
2023-02-05T02:58:22.782Z,9.87
2023-02-05T03:00:49.884Z,11.47
2023-02-05T03:03:17.827Z,11.13
2023-02-05T03:05:45.456Z,11.40
2023-02-05T03:08:14.407Z,10.80
2023-02-05T03:10:44.529Z,10.33
2023-02-05T03:13:12.234Z,13.70
2023-02-05T03:15:40.118Z,11.70
2023-02-05T03:18:05.893Z,9.90
2023-02-05T03:20:34.025Z,12.70
2023-02-05T03:22:58.381Z,11.97
2023-02-05T03:25:23.763Z,10.47
2023-02-05T03:27:54.512Z,11.33
2023-02-05T03:30:20.987Z,12.07
2023-02-05T03:33:01.345Z,10.10
2023-02-05T03:35:36.581Z,9.70
2023-02-05T03:38:37.082Z,11.87
2023-02-05T03:41:11.084Z,10.67
2023-02-05T03:43:46.945Z,10.50
2023-02-05T03:46:19.134Z,11.03
2023-02-05T03:48:56.703Z,13.60
2023-02-05T03:51:34.577Z,12.77
2023-02-05T03:54:11.379Z,14.40
2023-02-05T03:56:45.105Z,11.97
2023-02-05T03:59:10.941Z,12.23
2023-02-05T04:01:36.001Z,12.27
2023-02-05T04:03:59.965Z,9.70
2023-02-05T04:06:26.302Z,11.53
2023-02-05T04:08:50.771Z,13.40
2023-02-05T04:11:14.619Z,13.80
2023-02-05T04:13:40.436Z,15.43
2023-02-05T04:16:07.583Z,10.27
2023-02-05T04:18:31.435Z,11.87
2023-02-05T04:20:55.325Z,15.60
2023-02-05T04:23:23.507Z,13.37
2023-02-05T04:25:48.241Z,12.33
2023-02-05T04:28:15.503Z,11.70
2023-02-05T04:30:40.574Z,16.37
2023-02-05T04:33:06.478Z,13.80
2023-02-05T04:35:30.400Z,13.67
2023-02-05T04:37:54.631Z,12.83
2023-02-05T04:40:21.256Z,11.03
2023-02-05T04:42:45.345Z,13.27
2023-02-05T04:45:10.439Z,9.83
2023-02-05T04:47:34.634Z,16.13
2023-02-05T04:49:58.289Z,12.97
2023-02-05T04:52:22.066Z,14.80
2023-02-05T04:54:45.716Z,13.90
2023-02-05T04:57:10.915Z,14.73
2023-02-05T04:59:34.628Z,11.90
2023-02-05T05:01:58.657Z,18.40
2023-02-05T05:04:22.398Z,13.60
2023-02-05T05:06:46.111Z,15.90
2023-02-05T05:09:09.786Z,14.77
2023-02-05T05:11:33.515Z,14.50
2023-02-05T05:13:59.374Z,11.87
2023-02-05T05:16:23.128Z,13.07
2023-02-05T05:18:47.024Z,14.17
2023-02-05T05:21:11.668Z,11.47
2023-02-05T05:23:35.908Z,11.73
2023-02-05T05:25:59.659Z,12.37
2023-02-05T05:28:23.401Z,18.30
2023-02-05T05:30:49.082Z,13.70
2023-02-05T05:33:13.300Z,12.20
2023-02-05T05:35:37.421Z,13.37
2023-02-05T05:38:01.997Z,13.27
2023-02-05T05:40:43.383Z,14.47
2023-02-05T05:43:24.683Z,15.67
2023-02-05T05:45:49.832Z,13.97
2023-02-05T05:48:13.526Z,11.07
2023-02-05T05:50:37.249Z,15.17
2023-02-05T05:53:00.977Z,15.60
2023-02-05T05:55:24.730Z,13.77
2023-02-05T05:57:48.433Z,14.27
2023-02-05T06:00:14.528Z,14.67
2023-02-05T06:02:44.307Z,14.50
2023-02-05T06:05:08.958Z,16.00
2023-02-05T06:07:32.622Z,16.07
2023-02-05T06:09:56.353Z,13.60
2023-02-05T06:12:19.990Z,19.07
2023-02-05T06:14:45.070Z,12.03
2023-02-05T06:17:08.694Z,13.73
2023-02-05T06:19:33.821Z,17.83
2023-02-05T06:21:57.481Z,14.07
2023-02-05T06:24:21.197Z,15.67
2023-02-05T06:26:44.881Z,16.90
2023-02-05T06:29:08.580Z,16.27
2023-02-05T06:31:32.596Z,16.00
2023-02-05T06:33:56.394Z,17.97
2023-02-05T06:36:21.520Z,19.50
2023-02-05T06:38:45.220Z,16.77
2023-02-05T06:41:08.921Z,17.93
2023-02-05T06:43:32.600Z,20.30
2023-02-05T06:45:56.920Z,17.50
2023-02-05T06:48:20.708Z,17.77
2023-02-05T06:50:44.386Z,14.77
2023-02-05T06:53:11.583Z,19.57
2023-02-05T06:55:35.832Z,15.27
2023-02-05T06:57:59.709Z,20.77
2023-02-05T07:00:23.827Z,16.33
2023-02-05T07:02:47.669Z,16.60
2023-02-05T07:05:12.817Z,17.53
2023-02-05T07:07:36.694Z,19.17
2023-02-05T07:10:02.137Z,22.87
2023-02-05T07:12:25.889Z,19.57
2023-02-05T07:14:49.671Z,21.60
2023-02-05T07:17:13.543Z,23.27
2023-02-05T07:19:37.786Z,26.70
2023-02-05T07:22:01.904Z,25.10
2023-02-05T07:24:25.527Z,27.97
2023-02-05T07:26:50.699Z,31.70
2023-02-05T07:29:14.518Z,31.07
2023-02-05T07:31:38.563Z,31.10
2023-02-05T07:34:02.417Z,37.73
2023-02-05T07:36:26.546Z,28.63
2023-02-05T07:38:50.374Z,36.83
2023-02-05T07:41:17.280Z,40.67
2023-02-05T07:43:42.558Z,30.80
2023-02-05T07:46:08.547Z,29.73
2023-02-05T07:48:32.309Z,27.20
2023-02-05T07:50:56.133Z,31.60
2023-02-05T07:53:20.049Z,32.83
2023-02-05T07:55:43.764Z,31.57
2023-02-05T07:58:07.470Z,27.40
2023-02-05T08:00:32.617Z,32.13
2023-02-05T08:02:56.261Z,49.80
2023-02-05T08:05:20.096Z,71.03
2023-02-05T08:07:43.781Z,55.30
2023-02-05T08:10:08.563Z,44.07
2023-02-05T08:12:32.368Z,34.73
2023-02-05T08:14:56.438Z,35.43
2023-02-05T08:17:21.551Z,34.77
2023-02-05T08:19:45.312Z,32.93
2023-02-05T08:22:09.226Z,31.33
2023-02-05T08:24:33.597Z,29.50
2023-02-05T08:26:57.187Z,28.70
2023-02-05T08:29:20.922Z,36.30
2023-02-05T08:31:45.424Z,50.20
2023-02-05T08:34:10.606Z,45.87
2023-02-05T08:36:34.316Z,37.83
2023-02-05T08:38:58.279Z,37.00
2023-02-05T08:41:21.927Z,32.07
2023-02-05T08:43:48.311Z,35.73
2023-02-05T08:46:14.489Z,27.63
2023-02-05T08:48:39.202Z,25.37
2023-02-05T08:51:05.465Z,31.80
2023-02-05T08:53:29.552Z,33.07
2023-02-05T08:55:57.152Z,29.67
2023-02-05T08:58:20.913Z,29.00
2023-02-05T09:00:44.557Z,30.07
2023-02-05T09:03:08.855Z,25.00
2023-02-05T09:05:32.658Z,24.87
2023-02-05T09:07:59.299Z,26.67
2023-02-05T09:10:23.128Z,23.33
2023-02-05T09:12:49.068Z,25.57
2023-02-05T09:15:12.679Z,30.67
2023-02-05T09:17:36.471Z,26.63
2023-02-05T09:20:00.208Z,25.60
2023-02-05T09:22:23.905Z,27.90
2023-02-05T09:24:49.009Z,20.43
2023-02-05T09:27:14.408Z,17.77
2023-02-05T09:29:38.273Z,21.13
2023-02-05T09:32:02.094Z,19.23
2023-02-05T09:34:25.732Z,16.50
2023-02-05T09:36:49.451Z,11.73
2023-02-05T09:39:25.684Z,14.97
2023-02-05T09:42:05.050Z,12.97
2023-02-05T09:44:50.652Z,10.37
2023-02-05T09:47:25.019Z,7.80
2023-02-05T09:49:57.781Z,9.93
2023-02-05T09:52:27.326Z,4.93
2023-02-05T09:54:56.649Z,8.10
2023-02-05T09:57:34.700Z,5.20
2023-02-05T09:59:59.457Z,8.73
2023-02-05T10:02:30.611Z,6.67
2023-02-05T10:04:55.379Z,7.33
2023-02-05T10:07:27.545Z,7.70
2023-02-05T10:10:26.059Z,6.60
2023-02-05T10:13:29.307Z,7.23
2023-02-05T10:16:34.741Z,7.33
2023-02-05T10:19:20.864Z,8.57
2023-02-05T10:22:11.979Z,6.17
2023-02-05T10:24:53.770Z,5.67
2023-02-05T10:27:22.715Z,7.33
2023-02-05T10:29:59.547Z,7.90
2023-02-05T10:32:24.974Z,6.03
2023-02-05T10:34:58.060Z,7.23
2023-02-05T10:37:29.873Z,5.47
2023-02-05T10:39:54.829Z,6.77
2023-02-05T10:42:30.445Z,3.53
2023-02-05T10:45:07.436Z,4.23
2023-02-05T10:47:49.432Z,7.20
2023-02-05T10:50:23.179Z,3.47
2023-02-05T10:52:46.970Z,7.43
2023-02-05T10:55:13.373Z,7.43
2023-02-05T10:57:37.494Z,6.07
2023-02-05T11:00:07.751Z,5.83
2023-02-05T11:02:38.708Z,10.20
2023-02-05T11:05:07.940Z,4.23
2023-02-05T11:07:40.200Z,7.63
2023-02-05T11:10:17.426Z,4.53
2023-02-05T11:12:41.220Z,6.90
2023-02-05T11:15:06.471Z,6.90
2023-02-05T11:17:35.482Z,6.73
2023-02-05T11:20:02.951Z,5.40
2023-02-05T11:22:31.746Z,7.53
2023-02-05T11:25:11.436Z,6.50
2023-02-05T11:27:36.772Z,3.73
2023-02-05T11:30:51.959Z,7.20
2023-02-05T11:33:30.776Z,4.53
2023-02-05T11:35:59.118Z,5.67
2023-02-05T11:38:31.949Z,6.10
2023-02-05T11:40:55.951Z,5.17
2023-02-05T11:43:26.897Z,8.03
2023-02-05T11:45:55.168Z,6.73
2023-02-05T11:48:36.456Z,11.80
2023-02-05T11:51:00.793Z,10.47
2023-02-05T11:53:24.896Z,6.37
2023-02-05T11:55:55.730Z,6.43
2023-02-05T11:58:36.202Z,7.17
2023-02-05T12:01:04.243Z,6.27
2023-02-05T12:03:31.074Z,9.33
2023-02-05T12:06:04.557Z,7.67
2023-02-05T12:08:37.646Z,3.90
2023-02-05T12:11:17.223Z,6.73
2023-02-05T12:13:58.439Z,8.10
2023-02-05T12:16:41.758Z,6.90
2023-02-05T12:19:19.618Z,6.17
2023-02-05T12:21:51.859Z,8.17
2023-02-05T12:24:31.712Z,7.43
2023-02-05T12:27:00.768Z,5.40
2023-02-05T12:29:46.556Z,9.70
2023-02-05T12:32:23.573Z,7.27
2023-02-05T12:35:09.548Z,7.40
2023-02-05T12:37:40.936Z,7.97
2023-02-05T12:40:25.428Z,9.53
2023-02-05T12:42:59.683Z,8.20
2023-02-05T12:45:54.586Z,7.33
2023-02-05T12:48:40.294Z,8.03
2023-02-05T12:51:23.008Z,5.57
2023-02-05T12:54:19.817Z,6.70
2023-02-05T12:56:58.153Z,6.43
2023-02-05T12:59:34.506Z,6.03
2023-02-05T13:02:07.345Z,6.90
2023-02-05T13:04:38.883Z,9.43
2023-02-05T13:07:13.147Z,6.90
2023-02-05T13:09:48.794Z,5.47
2023-02-05T13:12:16.784Z,4.97
2023-02-05T13:14:45.658Z,6.47
2023-02-05T13:17:17.280Z,8.77
2023-02-05T13:19:48.277Z,4.10
2023-02-05T13:22:35.833Z,7.57
2023-02-05T13:25:29.977Z,8.80
2023-02-05T13:28:30.445Z,6.17
2023-02-05T13:30:57.265Z,6.50
2023-02-05T13:33:20.872Z,8.63
2023-02-05T13:35:58.034Z,6.17
2023-02-05T13:38:39.997Z,6.37
2023-02-05T13:41:30.247Z,4.43
2023-02-05T13:44:21.122Z,12.60
2023-02-05T13:47:19.911Z,6.43
2023-02-05T13:50:29.332Z,5.13
2023-02-05T13:53:25.183Z,9.90
2023-02-05T13:56:25.211Z,5.70
2023-02-05T13:58:51.962Z,8.27
2023-02-05T14:01:22.670Z,4.97
2023-02-05T14:03:59.525Z,5.83
2023-02-05T14:06:29.777Z,8.07
2023-02-05T14:09:02.651Z,7.23
2023-02-05T14:11:26.427Z,5.83
2023-02-05T14:14:37.898Z,7.63
2023-02-05T14:17:04.328Z,6.73
2023-02-05T14:19:57.071Z,7.13
2023-02-05T14:22:38.088Z,6.97
2023-02-05T14:25:03.180Z,8.97
2023-02-05T14:27:55.297Z,8.47
2023-02-05T14:30:50.830Z,7.40
2023-02-05T14:33:40.622Z,8.23
2023-02-05T14:36:33.928Z,5.13
2023-02-05T14:39:02.059Z,5.27
2023-02-05T14:41:31.051Z,7.00
2023-02-05T14:43:59.369Z,9.30
2023-02-05T14:46:31.375Z,11.23
2023-02-05T14:48:58.258Z,7.17
2023-02-05T14:51:27.440Z,5.17
2023-02-05T14:53:59.926Z,6.30
2023-02-05T14:56:33.918Z,6.57
2023-02-05T14:59:05.199Z,6.07
2023-02-05T15:01:44.511Z,7.77
2023-02-05T15:04:23.404Z,10.30
2023-02-05T15:06:48.395Z,6.60
2023-02-05T15:09:18.574Z,8.97
2023-02-05T15:12:02.704Z,7.27
2023-02-05T15:14:44.527Z,7.37
2023-02-05T15:17:58.118Z,7.60
2023-02-05T15:20:32.369Z,8.50
2023-02-05T15:23:04.755Z,9.43
2023-02-05T15:25:39.641Z,8.60
2023-02-05T15:28:10.190Z,7.03
2023-02-05T15:30:53.368Z,7.73
2023-02-05T15:33:27.082Z,7.90
2023-02-05T15:35:52.891Z,9.87
2023-02-05T15:38:28.441Z,9.60
2023-02-05T15:40:52.957Z,6.70
2023-02-05T15:43:23.495Z,9.80
2023-02-05T15:45:47.814Z,7.93
2023-02-05T15:48:16.775Z,9.47
2023-02-05T15:50:47.016Z,7.33
2023-02-05T15:53:22.882Z,9.33
2023-02-05T15:55:50.284Z,10.57
2023-02-05T15:58:18.181Z,12.90
2023-02-05T16:00:47.854Z,9.00
2023-02-05T16:03:27.690Z,8.33
2023-02-05T16:05:54.223Z,7.27
2023-02-05T16:08:21.334Z,9.10
2023-02-05T16:10:57.799Z,9.90
2023-02-05T16:13:22.861Z,9.90
2023-02-05T16:15:53.300Z,12.90
2023-02-05T16:18:22.808Z,19.33
2023-02-05T16:20:53.232Z,13.37
2023-02-05T16:23:25.709Z,50.60
2023-02-05T16:25:53.617Z,119.87
2023-02-05T16:28:21.531Z,66.50
2023-02-05T16:30:49.027Z,23.97
2023-02-05T16:33:26.593Z,16.93
2023-02-05T16:35:50.583Z,18.03
2023-02-05T16:38:19.010Z,28.53
2023-02-05T16:40:46.681Z,25.87
2023-02-05T16:43:28.976Z,20.87
2023-02-05T16:46:31.101Z,18.77
2023-02-05T16:48:58.461Z,22.33
2023-02-05T16:51:36.565Z,24.37
2023-02-05T16:54:01.969Z,80.47
2023-02-05T16:56:28.604Z,89.93
2023-02-05T16:58:55.962Z,89.73
2023-02-05T17:01:25.032Z,56.47
2023-02-05T17:03:51.664Z,47.77
2023-02-05T17:06:17.768Z,51.57
2023-02-05T17:08:45.451Z,47.87
2023-02-05T17:11:34.957Z,59.77
2023-02-05T17:14:22.188Z,32.03
2023-02-05T17:16:57.622Z,41.73
2023-02-05T17:19:28.301Z,48.20
2023-02-05T17:22:20.583Z,42.23
2023-02-05T17:24:45.579Z,27.37
2023-02-05T17:27:15.996Z,29.63
2023-02-05T17:29:39.681Z,19.57
2023-02-05T17:32:05.165Z,28.53
2023-02-05T17:34:30.205Z,26.57
2023-02-05T17:36:53.796Z,25.17
2023-02-05T17:39:17.433Z,40.97
2023-02-05T17:42:08.906Z,57.63
2023-02-05T17:44:34.226Z,49.23
2023-02-05T17:47:00.399Z,35.90
2023-02-05T17:49:24.047Z,41.13
2023-02-05T17:51:49.121Z,30.03
2023-02-05T17:54:16.099Z,43.87
2023-02-05T17:56:42.209Z,159.43
2023-02-05T17:59:05.893Z,78.57
2023-02-05T18:01:29.592Z,92.93
2023-02-05T18:03:53.249Z,106.60
2023-02-05T18:06:19.785Z,102.53
2023-02-05T18:08:44.848Z,63.67
2023-02-05T18:11:08.496Z,32.80
2023-02-05T18:13:32.254Z,44.13
2023-02-05T18:16:01.456Z,34.00
2023-02-05T18:18:25.203Z,39.17
2023-02-05T18:20:48.842Z,30.10
2023-02-05T18:23:16.198Z,23.90
2023-02-05T18:25:46.470Z,25.63
2023-02-05T18:28:10.212Z,26.47
2023-02-05T18:30:34.524Z,38.27
2023-02-05T18:32:58.480Z,31.43
2023-02-05T18:35:22.181Z,55.20
2023-02-05T18:37:47.074Z,125.97
2023-02-05T18:40:12.692Z,42.40
2023-02-05T18:42:37.727Z,29.10
2023-02-05T18:45:01.541Z,39.07
2023-02-05T18:47:25.169Z,32.80
2023-02-05T18:49:48.855Z,28.13
2023-02-05T18:52:14.030Z,27.20
2023-02-05T18:54:37.670Z,24.77
2023-02-05T18:57:01.340Z,24.23
2023-02-05T18:59:26.426Z,25.03
2023-02-05T19:01:50.008Z,24.40
2023-02-05T19:04:18.553Z,24.47
2023-02-05T19:06:43.103Z,26.43
2023-02-05T19:09:06.800Z,27.20
2023-02-05T19:11:32.062Z,21.37
2023-02-05T19:14:02.596Z,22.73
2023-02-05T19:16:29.495Z,23.17
2023-02-05T19:18:53.093Z,24.10
2023-02-05T19:21:19.584Z,24.97
2023-02-05T19:23:44.432Z,25.27
2023-02-05T19:26:11.586Z,23.30
2023-02-05T19:28:36.159Z,17.77
2023-02-05T19:31:03.604Z,160.60
2023-02-05T19:33:28.840Z,123.40
2023-02-05T19:35:52.480Z,64.70
2023-02-05T19:38:16.260Z,67.83
2023-02-05T19:40:39.870Z,58.60
2023-02-05T19:43:03.473Z,50.63
2023-02-05T19:45:27.314Z,51.10
2023-02-05T19:47:51.021Z,50.53
2023-02-05T19:50:16.223Z,48.93
2023-02-05T19:52:39.838Z,47.27
2023-02-05T19:55:03.468Z,47.00
2023-02-05T19:57:27.156Z,48.50
2023-02-05T19:59:50.734Z,48.20
2023-02-05T20:02:19.187Z,42.53
2023-02-05T20:04:43.042Z,40.07
2023-02-05T20:07:08.123Z,41.07
2023-02-05T20:09:32.782Z,42.17
2023-02-05T20:11:56.536Z,44.40
2023-02-05T20:14:20.548Z,37.60
2023-02-05T20:16:45.211Z,46.37
2023-02-05T20:19:10.921Z,44.57
2023-02-05T20:21:34.808Z,47.60
2023-02-05T20:24:00.084Z,51.00
2023-02-05T20:26:23.936Z,51.37
2023-02-05T20:29:07.355Z,50.27
2023-02-05T20:31:34.798Z,68.90
2023-02-05T20:33:58.394Z,62.17
2023-02-05T20:36:22.204Z,53.53
2023-02-05T20:38:45.789Z,46.70
2023-02-05T20:41:16.331Z,47.37
2023-02-05T20:43:40.028Z,46.20
2023-02-05T20:46:05.146Z,43.90
2023-02-05T20:48:30.537Z,42.50
2023-02-05T20:50:54.135Z,43.33
2023-02-05T20:53:18.854Z,45.20
2023-02-05T20:55:42.465Z,46.57
2023-02-05T20:58:07.567Z,43.07
2023-02-05T21:00:31.240Z,44.90
2023-02-05T21:02:55.299Z,40.53
2023-02-05T21:05:18.999Z,35.23
2023-02-05T21:07:42.679Z,39.90
2023-02-05T21:10:07.448Z,44.20
2023-02-05T21:12:32.423Z,48.40
2023-02-05T21:14:57.587Z,44.27
2023-02-05T21:17:21.363Z,48.30
2023-02-05T21:19:45.011Z,45.17
2023-02-05T21:22:08.773Z,46.17
2023-02-05T21:24:33.083Z,52.70
2023-02-05T21:26:57.201Z,64.57
2023-02-05T21:29:22.240Z,62.90
2023-02-05T21:31:49.519Z,64.60
2023-02-05T21:34:16.203Z,64.50
2023-02-05T21:36:39.887Z,67.23
2023-02-05T21:39:03.525Z,68.30
2023-02-05T21:41:27.736Z,66.23
2023-02-05T21:43:52.714Z,63.07
2023-02-05T21:46:16.433Z,67.97
2023-02-05T21:48:41.819Z,67.13
2023-02-05T21:51:11.502Z,62.97
2023-02-05T21:53:35.297Z,69.83
2023-02-05T21:56:02.717Z,67.87
2023-02-05T21:58:26.440Z,66.40
2023-02-05T22:00:50.163Z,66.50
2023-02-05T22:03:13.860Z,64.00
2023-02-05T22:05:38.893Z,65.87
2023-02-05T22:08:02.513Z,66.37
2023-02-05T22:10:26.169Z,66.43
2023-02-05T22:12:49.777Z,73.03
2023-02-05T22:15:14.296Z,74.53
2023-02-05T22:17:37.950Z,74.57
2023-02-05T22:20:01.679Z,74.27
2023-02-05T22:22:26.851Z,73.70
2023-02-05T22:24:50.746Z,71.77
2023-02-05T22:27:14.411Z,73.00
2023-02-05T22:29:38.087Z,69.50
2023-02-05T22:32:01.741Z,69.90
2023-02-05T22:34:25.517Z,75.40
2023-02-05T22:36:49.333Z,73.10
2023-02-05T22:39:14.445Z,67.10
2023-02-05T22:41:41.166Z,79.30
2023-02-05T22:44:07.221Z,70.97
2023-02-05T22:46:33.842Z,68.83
2023-02-05T22:48:59.668Z,66.30
2023-02-05T22:51:25.977Z,70.37
2023-02-05T22:53:49.977Z,76.60
2023-02-05T22:56:15.656Z,80.87
2023-02-05T22:58:41.567Z,71.93
2023-02-05T23:01:10.063Z,82.30
2023-02-05T23:03:33.766Z,82.50
2023-02-05T23:05:57.428Z,73.77
2023-02-05T23:08:21.043Z,77.33
2023-02-05T23:10:44.789Z,72.60
2023-02-05T23:13:09.929Z,68.50
2023-02-05T23:15:33.679Z,81.50
2023-02-05T23:17:57.578Z,78.33
2023-02-05T23:20:21.494Z,78.27
2023-02-05T23:22:45.244Z,78.67
2023-02-05T23:25:09.326Z,71.60
2023-02-05T23:27:34.453Z,73.00
2023-02-05T23:29:59.589Z,65.67
2023-02-05T23:32:23.307Z,70.97
2023-02-05T23:34:47.042Z,72.80
2023-02-05T23:37:10.896Z,76.83
2023-02-05T23:39:34.563Z,73.23
2023-02-05T23:41:58.186Z,68.40
2023-02-05T23:44:22.162Z,66.97
2023-02-05T23:46:49.283Z,63.37
2023-02-05T23:49:13.772Z,60.77
2023-02-05T23:51:37.966Z,64.77
2023-02-05T23:54:01.861Z,61.40
2023-02-05T23:56:25.522Z,70.30
2023-02-05T23:58:49.154Z,65.43
